createdAt,value
2022-12-15T05:02:03.060Z,143.00
2022-12-15T05:04:50.700Z,152.30
2022-12-15T05:07:38.294Z,98.90
2022-12-15T05:10:26.848Z,99.70
2022-12-15T05:13:25.695Z,78.30
2022-12-15T05:16:16.021Z,75.10
2022-12-15T05:21:27.498Z,69.50
2022-12-15T05:24:18.557Z,65.00
2022-12-15T05:27:09.924Z,65.20
2022-12-15T05:30:01.636Z,58.40
2022-12-15T05:32:34.455Z,55.80
2022-12-15T05:35:06.397Z,53.40
2022-12-15T05:37:41.266Z,47.60
2022-12-15T05:40:13.810Z,53.20
2022-12-15T05:42:49.973Z,59.80
2022-12-15T05:45:23.219Z,55.50
2022-12-15T05:47:53.070Z,56.00
2022-12-15T05:50:25.726Z,56.60
2022-12-15T05:52:59.150Z,61.10
2022-12-15T05:55:47.844Z,55.90
2022-12-15T05:59:22.665Z,63.50
2022-12-15T06:01:55.441Z,59.50
2022-12-15T06:04:29.647Z,78.20
2022-12-15T06:07:03.613Z,66.20
2022-12-15T06:09:52.397Z,59.60
2022-12-15T06:12:25.029Z,82.70
2022-12-15T06:14:57.803Z,69.90
2022-12-15T06:17:30.910Z,84.70
2022-12-15T06:20:00.210Z,76.70
2022-12-15T06:22:32.844Z,140.50
2022-12-15T06:25:05.924Z,189.90
2022-12-15T06:27:37.552Z,230.10
2022-12-15T06:30:07.226Z,160.00
2022-12-15T06:32:36.901Z,188.40
2022-12-15T06:35:05.519Z,229.80
2022-12-15T06:37:34.641Z,213.60
2022-12-15T06:40:03.666Z,126.30
2022-12-15T06:45:31.034Z,151.20
2022-12-15T06:48:01.635Z,148.00
2022-12-15T06:50:31.161Z,128.50
2022-12-15T06:53:00.867Z,102.20
2022-12-15T06:55:29.138Z,67.10
2022-12-15T06:57:58.063Z,84.50
2022-12-15T07:00:28.330Z,88.80
2022-12-15T07:02:56.819Z,111.10
2022-12-15T07:05:26.103Z,93.40
2022-12-15T07:07:55.176Z,157.20
2022-12-15T07:10:24.433Z,107.60
2022-12-15T07:12:53.461Z,83.70
2022-12-15T07:15:22.750Z,78.10
2022-12-15T07:17:57.275Z,85.00
2022-12-15T07:20:28.939Z,88.80
2022-12-15T07:22:58.472Z,76.90
2022-12-15T07:25:26.944Z,69.90
2022-12-15T07:27:56.416Z,72.80
2022-12-15T07:30:25.463Z,81.70
2022-12-15T07:32:54.353Z,85.80
2022-12-15T07:35:23.480Z,75.40
2022-12-15T07:37:52.448Z,82.00
2022-12-15T07:40:21.015Z,66.50
2022-12-15T07:42:49.794Z,67.70
2022-12-15T07:45:19.000Z,64.30
2022-12-15T07:47:51.060Z,68.00
2022-12-15T07:50:20.528Z,75.40
2022-12-15T07:52:51.372Z,69.20
2022-12-15T07:55:37.244Z,71.80
2022-12-15T07:58:09.370Z,74.90
2022-12-15T08:00:38.128Z,85.20
2022-12-15T08:03:06.679Z,63.70
2022-12-15T08:05:35.884Z,66.90
2022-12-15T08:08:04.702Z,67.60
2022-12-15T08:10:33.450Z,69.60
2022-12-15T08:13:01.658Z,64.60
2022-12-15T08:15:30.355Z,54.10
2022-12-15T08:17:59.122Z,58.00
2022-12-15T08:20:27.539Z,56.70
2022-12-15T08:22:56.124Z,60.30
2022-12-15T08:25:25.397Z,53.60
2022-12-15T08:27:53.866Z,53.40
2022-12-15T08:30:23.209Z,51.50
2022-12-15T08:32:52.330Z,55.20
2022-12-15T08:35:54.470Z,55.00
2022-12-15T08:38:10.687Z,58.40
2022-12-15T08:40:39.918Z,66.80
2022-12-15T08:43:08.956Z,66.80
2022-12-15T08:45:41.294Z,58.70
2022-12-15T08:48:09.246Z,68.60
2022-12-15T08:50:37.837Z,62.90
2022-12-15T08:53:30.379Z,78.90
2022-12-15T08:55:55.819Z,61.50
2022-12-15T08:58:24.653Z,64.60
2022-12-15T09:00:53.683Z,100.50
2022-12-15T09:03:22.774Z,69.80
2022-12-15T09:05:51.648Z,65.80
2022-12-15T09:08:20.741Z,64.90
2022-12-15T09:10:52.673Z,66.40
2022-12-15T09:13:22.123Z,56.90
2022-12-15T09:16:10.953Z,58.20
2022-12-15T09:18:44.655Z,50.40
2022-12-15T09:21:14.578Z,47.80
2022-12-15T09:23:48.549Z,46.50
2022-12-15T09:26:23.044Z,49.70
2022-12-15T09:28:55.081Z,55.20
2022-12-15T09:31:30.058Z,56.50
2022-12-15T09:34:00.614Z,62.70
2022-12-15T09:36:33.221Z,55.50
2022-12-15T09:39:03.057Z,61.00
2022-12-15T09:41:35.674Z,59.90
2022-12-15T09:44:20.356Z,57.20
2022-12-15T09:47:16.200Z,51.10
2022-12-15T09:49:56.969Z,54.10
2022-12-15T09:52:30.583Z,55.60
2022-12-15T09:55:02.325Z,97.30
2022-12-15T09:57:40.533Z,100.70
2022-12-15T10:00:22.480Z,73.00
2022-12-15T10:03:13.464Z,74.90
2022-12-15T10:08:58.257Z,58.20
2022-12-15T10:11:50.247Z,75.60
2022-12-15T10:14:44.448Z,65.70
2022-12-15T10:17:35.014Z,51.10
2022-12-15T10:20:20.564Z,51.20
2022-12-15T10:22:50.665Z,60.10
2022-12-15T10:25:29.366Z,49.40
2022-12-15T10:28:10.907Z,44.60
2022-12-15T10:30:51.538Z,46.40
2022-12-15T10:33:24.649Z,49.10
2022-12-15T10:35:55.404Z,50.50
2022-12-15T10:38:41.136Z,55.50
2022-12-15T10:41:19.510Z,47.70
2022-12-15T10:43:53.860Z,62.70
2022-12-15T10:46:29.062Z,83.30
2022-12-15T10:49:00.542Z,62.60
2022-12-15T10:51:46.071Z,60.50
2022-12-15T10:54:16.774Z,54.70
2022-12-15T10:56:59.740Z,66.20
2022-12-15T10:59:34.771Z,72.40
2022-12-15T11:02:34.755Z,65.50
2022-12-15T11:05:11.421Z,63.40
2022-12-15T11:07:46.271Z,112.10
2022-12-15T11:10:24.943Z,79.40
2022-12-15T11:12:58.708Z,85.50
2022-12-15T11:15:39.690Z,99.90
2022-12-15T11:18:16.514Z,87.20
2022-12-15T11:21:08.688Z,106.60
2022-12-15T11:23:50.456Z,121.80
2022-12-15T11:26:49.003Z,86.30
2022-12-15T11:29:24.629Z,64.20
2022-12-15T11:31:54.816Z,66.60
2022-12-15T11:34:28.054Z,63.40
2022-12-15T11:37:37.190Z,71.60
2022-12-15T11:40:26.364Z,69.20
2022-12-15T11:43:29.831Z,66.10
2022-12-15T11:46:24.023Z,120.70
2022-12-15T11:52:43.799Z,56.30
2022-12-15T11:55:41.404Z,62.30
2022-12-15T11:58:43.229Z,58.50
2022-12-15T12:01:34.271Z,57.40
2022-12-15T12:04:13.897Z,87.80
2022-12-15T12:06:43.335Z,63.40
2022-12-15T12:09:18.771Z,63.20
2022-12-15T12:12:14.022Z,77.50
2022-12-15T12:15:01.187Z,65.40
2022-12-15T12:18:13.844Z,67.70
2022-12-15T12:21:01.592Z,65.90
2022-12-15T12:24:03.156Z,62.80
2022-12-15T12:26:39.819Z,71.20
2022-12-15T12:29:48.797Z,93.40
2022-12-15T12:32:50.739Z,73.40
2022-12-15T12:35:31.023Z,62.60
2022-12-15T12:38:06.541Z,84.80
2022-12-15T12:40:41.917Z,88.20
2022-12-15T12:43:22.329Z,92.40
2022-12-15T12:46:10.737Z,94.20
2022-12-15T12:48:48.584Z,84.90
2022-12-15T12:51:25.950Z,69.90
2022-12-15T12:53:55.779Z,62.50
2022-12-15T12:56:43.437Z,70.60
2022-12-15T12:59:29.998Z,70.70
2022-12-15T13:02:31.712Z,75.10
2022-12-15T13:05:21.944Z,74.70
2022-12-15T13:08:05.395Z,89.30
2022-12-15T13:10:36.577Z,79.20
2022-12-15T13:13:30.008Z,73.20
2022-12-15T13:16:06.684Z,62.70
2022-12-15T13:19:04.829Z,61.00
2022-12-15T13:21:44.532Z,64.80
2022-12-15T13:24:35.925Z,73.80
2022-12-15T13:27:11.677Z,62.20
2022-12-15T13:30:07.357Z,60.00
2022-12-15T13:33:16.753Z,65.00
2022-12-15T13:35:46.425Z,56.30
2022-12-15T13:38:19.089Z,76.80
2022-12-15T13:40:47.716Z,74.10
2022-12-15T13:43:29.657Z,88.70
2022-12-15T13:46:12.335Z,98.90
2022-12-15T13:48:45.717Z,98.50
2022-12-15T13:51:31.383Z,87.80
2022-12-15T13:54:04.906Z,106.30
2022-12-15T13:56:47.151Z,101.00
2022-12-15T13:59:45.821Z,120.60
2022-12-15T14:02:37.412Z,86.70
2022-12-15T14:05:07.449Z,101.20
2022-12-15T14:07:36.087Z,75.70
2022-12-15T14:10:07.971Z,77.30
2022-12-15T14:12:39.840Z,108.10
2022-12-15T14:15:20.453Z,112.10
2022-12-15T14:17:53.385Z,94.80
2022-12-15T14:20:26.318Z,65.50
2022-12-15T14:22:55.343Z,76.50
2022-12-15T14:25:31.167Z,76.80
2022-12-15T14:27:59.782Z,104.60
2022-12-15T14:30:33.234Z,102.60
2022-12-15T14:35:34.890Z,116.20
2022-12-15T14:40:38.039Z,88.60
2022-12-15T14:43:30.657Z,91.90
2022-12-15T14:46:12.706Z,81.20
2022-12-15T14:48:49.284Z,86.90
2022-12-15T14:51:18.683Z,94.70
2022-12-15T14:53:53.549Z,97.80
2022-12-15T14:56:29.395Z,100.10
2022-12-15T14:59:04.739Z,108.90
2022-12-15T15:02:08.122Z,99.60
2022-12-15T15:03:03.793Z,69.40
2022-12-15T15:03:09.223Z,67.60
2022-12-15T15:04:37.285Z,90.00
2022-12-15T15:07:15.621Z,81.40
2022-12-15T15:09:46.470Z,66.80
2022-12-15T15:12:21.512Z,72.30
2022-12-15T15:15:08.881Z,78.30
2022-12-15T15:17:44.396Z,85.70
2022-12-15T15:20:32.531Z,89.10
2022-12-15T15:23:17.847Z,119.90
2022-12-15T15:25:54.633Z,103.10
2022-12-15T15:28:37.804Z,86.30
2022-12-15T15:31:42.391Z,67.80
2022-12-15T15:34:11.724Z,101.00
2022-12-15T15:36:40.160Z,84.70
2022-12-15T15:39:20.512Z,92.80
2022-12-15T15:41:49.579Z,106.70
2022-12-15T15:44:18.927Z,93.30
2022-12-15T15:46:51.234Z,93.80
2022-12-15T15:49:22.299Z,97.00
2022-12-15T15:51:51.892Z,96.00
2022-12-15T15:54:25.605Z,108.30
2022-12-15T15:56:54.876Z,132.90
2022-12-15T15:59:25.363Z,125.60
2022-12-15T16:01:56.620Z,114.80
2022-12-15T16:04:26.834Z,92.30
2022-12-15T16:06:55.468Z,76.90
2022-12-15T16:09:24.931Z,86.30
2022-12-15T16:11:53.757Z,70.50
2022-12-15T16:14:22.379Z,67.00
2022-12-15T16:16:54.416Z,61.50
2022-12-15T16:19:24.512Z,69.60
2022-12-15T16:21:53.351Z,72.60
2022-12-15T16:24:22.303Z,68.00
2022-12-15T16:26:52.343Z,67.60
2022-12-15T16:29:23.000Z,69.60
2022-12-15T16:31:52.931Z,74.20
2022-12-15T16:34:22.591Z,67.60
2022-12-15T16:36:52.785Z,64.40
2022-12-15T16:39:28.700Z,70.30
2022-12-15T16:41:57.583Z,77.00
2022-12-15T16:44:27.599Z,74.80
2022-12-15T16:46:57.118Z,76.50
2022-12-15T16:49:25.659Z,72.60
2022-12-15T16:51:54.399Z,81.50
2022-12-15T16:54:26.814Z,86.20
2022-12-15T16:56:57.474Z,83.50
2022-12-15T16:59:36.174Z,81.00
2022-12-15T17:02:27.565Z,87.00
2022-12-15T17:04:56.835Z,96.60
2022-12-15T17:07:28.006Z,88.60
2022-12-15T17:09:57.339Z,92.30
2022-12-15T17:12:26.021Z,83.30
2022-12-15T17:14:54.700Z,100.20
2022-12-15T17:17:23.829Z,100.80
2022-12-15T17:22:47.899Z,75.40
2022-12-15T17:25:28.417Z,69.00
2022-12-15T17:28:19.098Z,75.90
2022-12-15T17:30:48.465Z,88.80
2022-12-15T17:33:26.144Z,91.70
2022-12-15T17:35:57.150Z,79.40
2022-12-15T17:38:30.060Z,79.00
2022-12-15T17:40:59.034Z,65.10
2022-12-15T17:43:33.812Z,65.30
2022-12-15T17:46:05.297Z,73.70
2022-12-15T17:48:34.657Z,77.60
2022-12-15T17:51:03.969Z,87.10
2022-12-15T17:53:33.409Z,99.10
2022-12-15T17:56:06.213Z,84.10
2022-12-15T17:58:37.392Z,76.60
2022-12-15T18:01:07.133Z,70.30
2022-12-15T18:03:37.587Z,63.80
2022-12-15T18:06:16.079Z,64.80
2022-12-15T18:08:45.778Z,73.20
2022-12-15T18:11:18.380Z,70.00
2022-12-15T18:13:50.196Z,71.00
2022-12-15T18:16:24.680Z,69.20
2022-12-15T18:18:53.704Z,75.50
2022-12-15T18:21:22.610Z,68.00
2022-12-15T18:23:52.523Z,71.50
2022-12-15T18:26:21.481Z,73.30
2022-12-15T18:28:50.182Z,74.90
2022-12-15T18:31:27.692Z,72.00
2022-12-15T18:34:00.987Z,71.50
2022-12-15T18:36:36.217Z,76.00
2022-12-15T18:39:24.050Z,74.60
2022-12-15T18:41:56.615Z,79.90
2022-12-15T18:44:32.389Z,65.50
2022-12-15T18:47:16.211Z,96.10
2022-12-15T18:49:51.392Z,78.00
2022-12-15T18:52:30.019Z,96.30
2022-12-15T18:55:16.940Z,95.90
2022-12-15T18:57:46.056Z,105.00
2022-12-15T19:00:15.166Z,103.70
2022-12-15T19:02:44.293Z,95.50
2022-12-15T19:05:33.554Z,92.00
2022-12-15T19:08:10.783Z,88.40
2022-12-15T19:11:00.912Z,103.10
2022-12-15T19:13:33.104Z,104.80
2022-12-15T19:16:05.314Z,89.60
2022-12-15T19:18:53.353Z,122.30
2022-12-15T19:21:47.088Z,109.90
2022-12-15T19:24:46.976Z,130.90
2022-12-15T19:27:23.927Z,93.70
2022-12-15T19:29:55.163Z,73.40
2022-12-15T19:32:24.354Z,76.10
2022-12-15T19:34:53.723Z,119.00
2022-12-15T19:37:30.202Z,120.50
2022-12-15T19:40:00.858Z,110.30
2022-12-15T19:42:34.063Z,79.50
2022-12-15T19:45:16.269Z,85.70
2022-12-15T19:47:45.214Z,73.90
2022-12-15T19:50:18.549Z,72.00
2022-12-15T19:55:26.084Z,62.40
2022-12-15T19:57:54.273Z,76.90
2022-12-15T20:00:27.521Z,87.60
2022-12-15T20:02:57.209Z,117.90
2022-12-15T20:05:26.111Z,113.40
2022-12-15T20:07:56.235Z,92.80
2022-12-15T20:10:32.302Z,79.30
2022-12-15T20:13:01.140Z,77.20
2022-12-15T20:15:29.298Z,80.50
2022-12-15T20:18:01.048Z,67.90
2022-12-15T20:20:33.469Z,74.00
2022-12-15T20:23:06.434Z,64.60
2022-12-15T20:25:38.697Z,74.20
2022-12-15T20:28:16.299Z,81.30
2022-12-15T20:30:46.391Z,70.90
2022-12-15T20:33:20.103Z,70.40
2022-12-15T20:35:52.500Z,67.60
2022-12-15T20:38:28.767Z,66.90
2022-12-15T20:41:02.421Z,72.10
2022-12-15T20:43:35.273Z,70.80
2022-12-15T20:46:13.987Z,67.20
2022-12-15T20:48:45.981Z,56.90
2022-12-15T20:51:29.923Z,57.50
2022-12-15T20:54:03.749Z,70.30
2022-12-15T20:56:48.236Z,93.30
2022-12-15T20:59:20.392Z,91.20
2022-12-15T21:01:52.733Z,74.60
2022-12-15T21:04:26.993Z,61.60
2022-12-15T21:06:57.349Z,68.90
2022-12-15T21:09:26.715Z,69.70
2022-12-15T21:11:55.492Z,69.90
2022-12-15T21:14:24.786Z,83.90
2022-12-15T21:16:58.293Z,72.80
2022-12-15T21:19:30.911Z,69.50
2022-12-15T21:22:03.828Z,68.60
2022-12-15T21:24:39.058Z,64.70
2022-12-15T21:27:12.784Z,61.80
2022-12-15T21:29:45.018Z,64.10
2022-12-15T21:32:17.928Z,64.20
2022-12-15T21:34:51.806Z,66.50
2022-12-15T21:37:30.697Z,75.90
2022-12-15T21:40:02.581Z,113.30
2022-12-15T21:42:35.183Z,127.70
2022-12-15T21:45:15.659Z,84.50
2022-12-15T21:48:02.792Z,78.50
2022-12-15T21:50:36.761Z,74.00
2022-12-15T21:53:07.095Z,92.90
2022-12-15T21:55:36.008Z,93.40
2022-12-15T21:58:22.455Z,102.10
2022-12-15T22:00:55.344Z,88.10
2022-12-15T22:03:24.048Z,56.30
2022-12-15T22:05:53.018Z,87.90
2022-12-15T22:08:25.550Z,89.90
2022-12-15T22:10:58.331Z,179.30
2022-12-15T22:13:33.445Z,99.80
2022-12-15T22:16:05.872Z,86.90
2022-12-15T22:18:38.378Z,109.90
2022-12-15T22:21:08.045Z,85.70
2022-12-15T22:23:36.876Z,97.60
2022-12-15T22:26:05.631Z,66.80
2022-12-15T22:28:35.151Z,141.10
2022-12-15T22:31:05.268Z,78.70
2022-12-15T22:33:33.755Z,86.00
2022-12-15T22:36:02.289Z,86.90
2022-12-15T22:38:30.665Z,75.20
2022-12-15T22:41:00.250Z,83.80
2022-12-15T22:43:41.870Z,81.60
2022-12-15T22:46:14.528Z,64.60
2022-12-15T22:48:49.755Z,78.70
2022-12-15T22:51:19.974Z,89.50
2022-12-15T22:53:48.155Z,109.00
2022-12-15T22:56:31.541Z,100.80
2022-12-15T22:59:06.511Z,73.30
2022-12-15T23:01:35.509Z,77.70
2022-12-15T23:04:05.734Z,83.50
2022-12-15T23:06:34.165Z,79.80
2022-12-15T23:09:02.573Z,81.50
2022-12-15T23:11:41.874Z,81.80
2022-12-15T23:14:13.613Z,84.50
2022-12-15T23:16:43.502Z,84.80
2022-12-15T23:19:24.229Z,108.30
2022-12-15T23:21:53.314Z,80.70
2022-12-15T23:24:22.264Z,74.40
2022-12-15T23:26:51.295Z,63.80
2022-12-15T23:29:21.261Z,70.20
2022-12-15T23:31:50.128Z,83.40
2022-12-15T23:34:21.492Z,85.70
2022-12-15T23:36:50.400Z,84.30
2022-12-15T23:39:19.146Z,85.30
2022-12-15T23:41:47.622Z,66.70
2022-12-15T23:44:16.696Z,62.60
2022-12-15T23:46:47.169Z,81.10
2022-12-15T23:49:16.338Z,77.60
2022-12-15T23:51:44.509Z,59.40
2022-12-15T23:54:13.075Z,55.90
2022-12-15T23:56:41.537Z,56.60
2022-12-15T23:59:11.684Z,54.90
